Time;durP1;ratioP1;P1;durP2;ratioP2;P2;SDS_P1;SDS_P2;PMS_P1;PMS_P2;Temp;Humidity;BMP_temperature;BMP_pressure;BME280_temperature;BME280_humidity;BME280_pressure;Samples;Min_cycle;Max_cycle;Signal;HPM_P1;HPM_P2
2023/12/27 00:01:55;;;;;;;;;;;;;;;;;;5020753;28;58419;-75
2023/12/27 00:04:20;;;;;;;;;;;;;;;;;;5022709;28;58414;-75
2023/12/27 00:06:45;;;;;;;;;;;;;;;;;;5022552;28;59279;-75
2023/12/27 00:09:10;;;;;;;;;;;;;;;;;;5021893;28;58943;-76
2023/12/27 00:11:35;;;;;;;;;;;;;;;;;;5022648;28;59409;-76
2023/12/27 00:14:01;;;;;;;;;;;;;;;;;;5022287;27;59596;-75
2023/12/27 00:16:26;;;;;;;;;;;;;;;;;;5021233;28;59103;-75
2023/12/27 00:18:51;;;;;;;;;;;;;;;;;;5050728;27;58906;-74
2023/12/27 00:21:16;;;;;;;;;;;;;;;;;;5022408;28;58742;-72
2023/12/27 00:23:41;;;;;;;;;;;;;;;;;;5021471;28;58737;-73
2023/12/27 00:26:06;;;;;;;;;;;;;;;;;;5022430;28;59590;-73
2023/12/27 00:28:31;;;;;;;;;;;;;;;;;;5023083;28;58548;-73
2023/12/27 00:30:56;;;;;;;;;;;;;;;;;;5020775;28;59053;-72
2023/12/27 00:33:21;;;;;;;;;;;;;;;;;;5022282;28;58888;-73
2023/12/27 00:35:46;;;;;;;;;;;;;;;;;;5022117;28;58839;-73
2023/12/27 00:38:11;;;;;;;;;;;;;;;;;;5023122;28;58697;-73
2023/12/27 00:40:37;;;;;;;;;;;;;;;;;;5024527;28;60572;-73
2023/12/27 00:43:02;;;;;;;;;;;;;;;;;;5022576;28;58698;-73
2023/12/27 00:45:27;;;;;;;;;;;;;;;;;;5021271;28;60398;-73
2023/12/27 00:47:52;;;;;;;;;;;;;;;;;;5022785;28;58390;-73
2023/12/27 00:50:17;;;;;;;;;;;;;;;;;;5025954;27;58475;-73
2023/12/27 00:52:42;;;;;;;;;;;;;;;;;;5027273;28;59560;-72
2023/12/27 00:55:07;;;;;;;;;;;;;;;;;;5024444;28;59486;-73
2023/12/27 00:57:32;;;;;;;;;;;;;;;;;;5026629;28;58642;-73
2023/12/27 00:59:57;;;;;;;;;;;;;;;;;;5026216;28;58534;-72
2023/12/27 01:02:22;;;;;;;;;;;;;;;;;;5026095;28;58522;-74
2023/12/27 01:04:47;;;;;;;;;;;;;;;;;;5026639;28;59413;-73
2023/12/27 01:07:12;;;;;;;;;;;;;;;;;;5025456;28;59250;-73
2023/12/27 01:09:38;;;;;;;;;;;;;;;;;;5026523;27;59404;-72
2023/12/27 01:12:03;;;;;;;;;;;;;;;;;;5025107;28;59727;-74
2023/12/27 01:14:28;;;;;;;;;;;;;;;;;;5025233;28;59308;-73
2023/12/27 01:16:53;;;;;;;;;;;;;;;;;;5027931;28;58935;-73
2023/12/27 01:19:18;;;;;;;;;;;;;;;;;;5026253;28;59467;-72
2023/12/27 01:21:43;;;;;;;;;;;;;;;;;;5025519;28;58871;-74
2023/12/27 01:24:08;;;;;;;;;;;;;;;;;;5027030;27;58751;-73
2023/12/27 01:26:33;;;;;;;;;;;;;;;;;;5025508;27;58665;-74
2023/12/27 01:28:58;;;;;;;;;;;;;;;;;;5025573;28;58602;-76
2023/12/27 01:31:24;;;;;;;;;;;;;;;;;;5026672;28;58340;-77
2023/12/27 01:33:49;;;;;;;;;;;;;;;;;;5024608;28;58510;-76
2023/12/27 01:36:14;;;;;;;;;;;;;;;;;;5025423;28;58409;-76
2023/12/27 01:38:39;;;;;;;;;;;;;;;;;;5024998;28;59373;-77
2023/12/27 01:41:04;;;;;;;;;;;;;;;;;;5022773;28;59224;-80
2023/12/27 01:43:29;;;;;;;;;;;;;;;;;;5025215;28;58781;-79
2023/12/27 01:45:54;;;;;;;;;;;;;;;;;;5023953;27;59460;-83
2023/12/27 01:48:22;;;;;;;;;;;;;;;;;;5023015;28;58730;-79
2023/12/27 01:50:47;;;;;;;;;;;;;;;;;;5023918;28;60247;-82
2023/12/27 01:53:12;;;;;;;;;;;;;;;;;;5022905;28;58936;-81
2023/12/27 01:55:37;;;;;;;;;;;;;;;;;;5022339;28;60359;-80
2023/12/27 01:58:02;;;;;;;;;;;;;;;;;;5023072;28;59414;-80
2023/12/27 02:00:28;;;;;;;;;;;;;;;;;;5021953;27;59265;-80
2023/12/27 02:02:53;;;;;;;;;;;;;;;;;;5021894;28;58699;-85
2023/12/27 02:05:18;;;;;;;;;;;;;;;;;;5024586;28;59360;-80
2023/12/27 02:07:43;;;;;;;;;;;;;;;;;;5024439;28;58649;-82
2023/12/27 02:10:08;;;;;;;;;;;;;;;;;;5022244;28;60392;-82
2023/12/27 02:12:33;;;;;;;;;;;;;;;;;;5023404;28;58858;-81
2023/12/27 02:14:58;;;;;;;;;;;;;;;;;;5022894;27;58434;-86
2023/12/27 02:17:23;;;;;;;;;;;;;;;;;;5022776;28;58747;-79
2023/12/27 02:19:48;;;;;;;;;;;;;;;;;;5023786;28;59177;-81
2023/12/27 02:22:13;;;;;;;;;;;;;;;;;;5047315;27;58544;-85
2023/12/27 02:24:38;;;;;;;;;;;;;;;;;;5023069;28;59396;-79
2023/12/27 02:27:03;;;;;;;;;;;;;;;;;;5023386;28;58866;-79
2023/12/27 02:29:28;;;;;;;;;;;;;;;;;;5022246;28;59654;-80
2023/12/27 02:31:54;;;;;;;;;;;;;;;;;;5020349;28;61357;-83
2023/12/27 02:34:19;;;;;;;;;;;;;;;;;;5021696;28;58892;-83
2023/12/27 02:36:44;;;;;;;;;;;;;;;;;;5022256;27;59449;-80
2023/12/27 02:39:09;;;;;;;;;;;;;;;;;;5022154;28;58626;-81
2023/12/27 02:41:34;;;;;;;;;;;;;;;;;;5023397;28;58769;-81
2023/12/27 02:43:59;;;;;;;;;;;;;;;;;;5022042;28;58804;-80
2023/12/27 02:46:24;;;;;;;;;;;;;;;;;;5022533;28;59545;-83
2023/12/27 02:48:49;;;;;;;;;;;;;;;;;;5025011;28;58611;-81
2023/12/27 02:51:14;;;;;;;;;;;;;;;;;;5022323;28;59675;-82
2023/12/27 02:53:39;;;;;;;;;;;;;;;;;;5023135;28;58573;-80
2023/12/27 02:56:05;;;;;;;;;;;;;;;;;;5022480;28;59675;-83
2023/12/27 02:58:30;;;;;;;;;;;;;;;;;;5023618;28;60111;-75
2023/12/27 03:00:55;;;;;;;;;;;;;;;;;;5023573;28;59123;-76
2023/12/27 03:03:20;;;;;;;;;;;;;;;;;;5022186;28;59918;-77
2023/12/27 03:05:45;;;;;;;;;;;;;;;;;;5022557;27;59438;-76
2023/12/27 03:08:10;;;;;;;;;;;;;;;;;;5023587;28;58533;-76
2023/12/27 03:10:35;;;;;;;;;;;;;;;;;;5024285;28;59275;-76
2023/12/27 03:13:00;;;;;;;;;;;;;;;;;;5022037;27;58467;-76
2023/12/27 03:15:25;;;;;;;;;;;;;;;;;;5023420;28;60293;-77
2023/12/27 03:17:50;;;;;;;;;;;;;;;;;;5022235;28;59685;-74
2023/12/27 03:20:15;;;;;;;;;;;;;;;;;;5021316;27;58813;-77
2023/12/27 03:22:40;;;;;;;;;;;;;;;;;;5023955;28;59388;-77
2023/12/27 03:25:06;;;;;;;;;;;;;;;;;;5022774;28;58941;-77
2023/12/27 03:27:31;;;;;;;;;;;;;;;;;;5022620;28;58373;-78
2023/12/27 03:29:56;;;;;;;;;;;;;;;;;;5023636;28;59809;-76
2023/12/27 03:32:21;;;;;;;;;;;;;;;;;;5023044;28;59039;-75
2023/12/27 03:34:46;;;;;;;;;;;;;;;;;;5021562;28;59196;-76
2023/12/27 03:37:12;;;;;;;;;;;;;;;;;;5023127;28;59244;-76
2023/12/27 03:39:37;;;;;;;;;;;;;;;;;;5022954;28;58858;-78
2023/12/27 03:42:02;;;;;;;;;;;;;;;;;;5018660;28;59646;-76
2023/12/27 03:44:28;;;;;;;;;;;;;;;;;;5022408;28;58654;-77
2023/12/27 03:46:53;;;;;;;;;;;;;;;;;;5024029;28;59159;-76
2023/12/27 03:49:18;;;;;;;;;;;;;;;;;;5021418;28;58475;-75
2023/12/27 03:51:43;;;;;;;;;;;;;;;;;;5021923;28;60191;-75
2023/12/27 03:54:08;;;;;;;;;;;;;;;;;;5022999;28;58890;-75
2023/12/27 03:56:33;;;;;;;;;;;;;;;;;;5018923;28;59890;-78
2023/12/27 03:59:03;;;;;;;;;;;;;;;;;;5022483;28;59072;-76
2023/12/27 04:01:28;;;;;;;;;;;;;;;;;;5023117;28;58917;-79
2023/12/27 04:03:53;;;;;;;;;;;;;;;;;;5021883;28;59783;-75
2023/12/27 04:06:18;;;;;;;;;;;;;;;;;;5022165;28;59043;-76
2023/12/27 04:08:43;;;;;;;;;;;;;;;;;;5024073;27;59410;-74
2023/12/27 04:11:08;;;;;;;;;;;;;;;;;;5021447;28;58591;-78
2023/12/27 04:13:33;;;;;;;;;;;;;;;;;;5023916;28;58831;-74
2023/12/27 04:15:59;;;;;;;;;;;;;;;;;;5020448;27;59422;-74
2023/12/27 04:18:24;;;;;;;;;;;;;;;;;;5023423;27;59697;-74
2023/12/27 04:20:49;;;;;;;;;;;;;;;;;;5021550;27;60397;-73
2023/12/27 04:23:14;;;;;;;;;;;;;;;;;;5021751;28;58975;-75
2023/12/27 04:25:39;;;;;;;;;;;;;;;;;;5021765;28;58542;-74
2023/12/27 04:28:04;;;;;;;;;;;;;;;;;;5020691;28;58761;-78
2023/12/27 04:30:29;;;;;;;;;;;;;;;;;;5019825;28;59804;-77
2023/12/27 04:32:54;;;;;;;;;;;;;;;;;;5019457;28;59482;-77
2023/12/27 04:35:19;;;;;;;;;;;;;;;;;;5021165;28;59062;-77
2023/12/27 04:37:45;;;;;;;;;;;;;;;;;;5021918;28;59583;-77
2023/12/27 04:40:10;;;;;;;;;;;;;;;;;;5021333;28;58692;-77
2023/12/27 04:42:35;;;;;;;;;;;;;;;;;;5021626;28;58806;-77
2023/12/27 04:45:00;;;;;;;;;;;;;;;;;;5020417;28;59180;-77
2023/12/27 04:47:25;;;;;;;;;;;;;;;;;;5023592;28;58962;-77
2023/12/27 04:49:50;;;;;;;;;;;;;;;;;;5022994;28;59208;-77
2023/12/27 04:52:16;;;;;;;;;;;;;;;;;;5021955;28;58593;-77
2023/12/27 04:54:41;;;;;;;;;;;;;;;;;;5021756;28;60777;-77
2023/12/27 04:57:06;;;;;;;;;;;;;;;;;;5020459;28;59136;-77
2023/12/27 04:59:31;;;;;;;;;;;;;;;;;;5022880;28;58725;-77
2023/12/27 05:01:56;;;;;;;;;;;;;;;;;;5021152;28;59134;-76
2023/12/27 05:04:21;;;;;;;;;;;;;;;;;;5022214;28;58641;-77
2023/12/27 05:06:47;;;;;;;;;;;;;;;;;;5023222;28;58605;-77
2023/12/27 05:09:12;;;;;;;;;;;;;;;;;;5021794;28;59143;-73
2023/12/27 05:11:37;;;;;;;;;;;;;;;;;;5020899;28;58460;-75
2023/12/27 05:14:03;;;;;;;;;;;;;;;;;;5020694;28;60031;-74
2023/12/27 05:16:28;;;;;;;;;;;;;;;;;;5021720;28;58870;-75
2023/12/27 05:18:53;;;;;;;;;;;;;;;;;;5021313;28;58914;-77
2023/12/27 05:21:18;;;;;;;;;;;;;;;;;;5019659;27;59504;-78
2023/12/27 05:23:43;;;;;;;;;;;;;;;;;;5021862;28;58419;-78
2023/12/27 05:26:08;;;;;;;;;;;;;;;;;;5021402;28;59752;-77
2023/12/27 05:28:33;;;;;;;;;;;;;;;;;;5021064;28;58985;-77
2023/12/27 05:30:58;;;;;;;;;;;;;;;;;;5021975;28;58457;-77
2023/12/27 05:33:24;;;;;;;;;;;;;;;;;;5019309;27;59415;-78
2023/12/27 05:35:49;;;;;;;;;;;;;;;;;;5022588;28;58964;-78
2023/12/27 05:38:14;;;;;;;;;;;;;;;;;;5024258;28;58437;-78
2023/12/27 05:40:39;;;;;;;;;;;;;;;;;;5025010;28;59703;-78
2023/12/27 05:43:04;;;;;;;;;;;;;;;;;;5024693;28;58671;-77
2023/12/27 05:45:29;;;;;;;;;;;;;;;;;;5025594;28;59371;-78
2023/12/27 05:47:54;;;;;;;;;;;;;;;;;;5023660;28;58863;-78
2023/12/27 05:50:20;;;;;;;;;;;;;;;;;;5024520;28;58758;-77
2023/12/27 05:52:45;;;;;;;;;;;;;;;;;;5025895;28;59778;-77
2023/12/27 05:55:10;;;;;;;;;;;;;;;;;;5024176;27;58699;-77
2023/12/27 05:57:35;;;;;;;;;;;;;;;;;;5024935;28;58416;-77
2023/12/27 06:00:00;;;;;;;;;;;;;;;;;;5024221;28;59429;-77
2023/12/27 06:02:25;;;;;;;;;;;;;;;;;;5024927;28;58939;-78
2023/12/27 06:04:50;;;;;;;;;;;;;;;;;;5026161;28;59420;-78
2023/12/27 06:07:15;;;;;;;;;;;;;;;;;;5024876;28;59247;-78
2023/12/27 06:09:40;;;;;;;;;;;;;;;;;;5025591;28;58555;-78
2023/12/27 06:12:08;;;;;;;;;;;;;;;;;;5024663;27;59922;-78
2023/12/27 06:14:33;;;;;;;;;;;;;;;;;;5023469;27;59407;-78
2023/12/27 06:16:58;;;;;;;;;;;;;;;;;;5025052;28;58221;-78
2023/12/27 06:19:23;;;;;;;;;;;;;;;;;;5025018;28;58529;-77
2023/12/27 06:21:48;;;;;;;;;;;;;;;;;;5024078;27;58671;-78
2023/12/27 06:24:14;;;;;;;;;;;;;;;;;;5023820;28;59461;-78
2023/12/27 06:26:40;;;;;;;;;;;;;;;;;;5024882;28;59755;-77
2023/12/27 06:29:05;;;;;;;;;;;;;;;;;;5024817;28;58666;-74
2023/12/27 06:31:30;;;;;;;;;;;;;;;;;;5023066;28;60097;-75
2023/12/27 06:33:56;;;;;;;;;;;;;;;;;;5024103;28;58976;-74
2023/12/27 06:36:22;;;;;;;;;;;;;;;;;;5025006;28;58805;-74
2023/12/27 06:38:48;;;;;;;;;;;;;;;;;;5025650;28;59890;-73
2023/12/27 06:41:13;;;;;;;;;;;;;;;;;;5023645;27;59347;-74
2023/12/27 06:43:38;;;;;;;;;;;;;;;;;;5026646;28;58342;-75
2023/12/27 06:46:04;;;;;;;;;;;;;;;;;;5023990;28;59172;-74
2023/12/27 06:48:29;;;;;;;;;;;;;;;;;;5022728;28;58734;-75
2023/12/27 06:50:54;;;;;;;;;;;;;;;;;;5024231;28;60829;-73
2023/12/27 06:53:19;;;;;;;;;;;;;;;;;;5024203;28;59253;-73
2023/12/27 06:55:44;;;;;;;;;;;;;;;;;;5024643;28;58647;-74
2023/12/27 06:58:09;;;;;;;;;;;;;;;;;;5025420;28;59532;-74
2023/12/27 07:00:35;;;;;;;;;;;;;;;;;;5023806;27;59695;-74
2023/12/27 07:03:00;;;;;;;;;;;;;;;;;;5024203;27;58851;-73
2023/12/27 07:05:25;;;;;;;;;;;;;;;;;;5022251;28;60087;-74
2023/12/27 07:07:50;;;;;;;;;;;;;;;;;;5025658;28;58768;-74
2023/12/27 07:10:15;;;;;;;;;;;;;;;;;;5024597;28;61348;-76
2023/12/27 07:12:40;;;;;;;;;;;;;;;;;;5023462;27;58838;-73
2023/12/27 07:15:07;;;;;;;;;;;;;;;;;;5025243;28;58914;-75
2023/12/27 07:17:32;;;;;;;;;;;;;;;;;;5023304;28;60618;-75
2023/12/27 07:19:57;;;;;;;;;;;;;;;;;;5023545;28;58488;-74
2023/12/27 07:22:22;;;;;;;;;;;;;;;;;;5024483;28;58699;-75
2023/12/27 07:24:48;;;;;;;;;;;;;;;;;;5023621;28;59712;-73
2023/12/27 07:27:13;;;;;;;;;;;;;;;;;;5024302;28;60049;-75
2023/12/27 07:29:38;;;;;;;;;;;;;;;;;;5024682;28;59542;-73
2023/12/27 07:32:03;;;;;;;;;;;;;;;;;;5022934;28;60214;-75
2023/12/27 07:34:29;;;;;;;;;;;;;;;;;;5023446;28;58558;-74
2023/12/27 07:36:54;;;;;;;;;;;;;;;;;;5024718;28;60367;-74
2023/12/27 07:39:19;;;;;;;;;;;;;;;;;;5022948;28;59252;-78
2023/12/27 07:41:44;;;;;;;;;;;;;;;;;;5024418;28;58343;-77
2023/12/27 07:44:09;;;;;;;;;;;;;;;;;;5023635;28;59431;-78
2023/12/27 07:46:35;;;;;;;;;;;;;;;;;;5021948;28;58411;-78
2023/12/27 07:49:00;;;;;;;;;;;;;;;;;;5023176;28;58612;-78
2023/12/27 07:51:25;;;;;;;;;;;;;;;;;;5023301;28;60151;-77
2023/12/27 07:53:50;;;;;;;;;;;;;;;;;;5023647;28;58847;-78
2023/12/27 07:56:15;;;;;;;;;;;;;;;;;;5022302;28;60418;-78
2023/12/27 07:58:40;;;;;;;;;;;;;;;;;;5022437;28;58866;-78
2023/12/27 08:01:06;;;;;;;;;;;;;;;;;;5021488;28;58806;-78
2023/12/27 08:03:31;;;;;;;;;;;;;;;;;;5021779;28;60438;-78
2023/12/27 08:05:56;;;;;;;;;;;;;;;;;;5023837;28;59985;-78
2023/12/27 08:08:21;;;;;;;;;;;;;;;;;;5022574;28;58794;-78
2023/12/27 08:10:46;;;;;;;;;;;;;;;;;;5025263;28;58556;-77
2023/12/27 08:13:11;;;;;;;;;;;;;;;;;;5023062;28;58810;-78
2023/12/27 08:15:36;;;;;;;;;;;;;;;;;;5022974;28;60069;-78
2023/12/27 08:18:03;;;;;;;;;;;;;;;;;;5022900;28;59093;-78
2023/12/27 08:20:28;;;;;;;;;;;;;;;;;;5023238;28;58568;-78
2023/12/27 08:22:54;;;;;;;;;;;;;;;;;;5024020;28;59456;-77
2023/12/27 08:25:19;;;;;;;;;;;;;;;;;;5023201;28;59002;-77
2023/12/27 08:27:44;;;;;;;;;;;;;;;;;;5021911;27;58407;-78
2023/12/27 08:30:09;;;;;;;;;;;;;;;;;;5022354;28;60457;-78
2023/12/27 08:32:34;;;;;;;;;;;;;;;;;;5022378;28;58486;-77
2023/12/27 08:35:00;;;;;;;;;;;;;;;;;;5023598;28;59510;-77
2023/12/27 08:37:25;;;;;;;;;;;;;;;;;;5023367;28;58430;-73
2023/12/27 08:39:50;;;;;;;;;;;;;;;;;;5022635;28;58320;-74
2023/12/27 08:42:15;;;;;;;;;;;;;;;;;;5023109;28;60155;-74
2023/12/27 08:44:41;;;;;;;;;;;;;;;;;;5020914;28;59780;-73
2023/12/27 08:47:06;;;;;;;;;;;;;;;;;;5023241;27;58791;-77
2023/12/27 08:49:32;;;;;;;;;;;;;;;;;;5022726;28;60274;-78
2023/12/27 08:51:57;;;;;;;;;;;;;;;;;;5023419;28;58577;-77
2023/12/27 08:54:22;;;;;;;;;;;;;;;;;;5022445;28;59526;-78
2023/12/27 08:56:47;;;;;;;;;;;;;;;;;;5021344;28;59541;-77
2023/12/27 08:59:12;;;;;;;;;;;;;;;;;;5023995;28;58884;-78
2023/12/27 09:01:37;;;;;;;;;;;;;;;;;;5022851;28;60321;-78
2023/12/27 09:04:02;;;;;;;;;;;;;;;;;;5020799;28;58984;-77
2023/12/27 09:06:27;;;;;;;;;;;;;;;;;;5022349;28;58367;-77
2023/12/27 09:08:53;;;;;;;;;;;;;;;;;;5022839;28;59352;-78
2023/12/27 09:11:18;;;;;;;;;;;;;;;;;;5023569;28;59610;-77
2023/12/27 09:13:43;;;;;;;;;;;;;;;;;;5027001;28;58410;-78
2023/12/27 09:16:08;;;;;;;;;;;;;;;;;;5025722;28;58585;-78
2023/12/27 09:18:33;;;;;;;;;;;;;;;;;;5025766;28;58523;-78
2023/12/27 09:20:58;;;;;;;;;;;;;;;;;;5025720;28;58630;-77
2023/12/27 09:23:23;;;;;;;;;;;;;;;;;;5025304;28;59010;-77
2023/12/27 09:25:49;;;;;;;;;;;;;;;;;;5025994;28;58408;-77
2023/12/27 09:28:14;;;;;;;;;;;;;;;;;;5024207;28;59532;-78
2023/12/27 09:30:40;;;;;;;;;;;;;;;;;;5025768;28;59362;-77
2023/12/27 09:33:05;;;;;;;;;;;;;;;;;;5025557;28;58440;-77
2023/12/27 09:35:30;;;;;;;;;;;;;;;;;;5024290;28;60442;-78
2023/12/27 09:37:55;;;;;;;;;;;;;;;;;;5025723;28;58699;-77
2023/12/27 09:40:21;;;;;;;;;;;;;;;;;;5025396;28;59718;-77
2023/12/27 09:42:46;;;;;;;;;;;;;;;;;;5023943;28;58962;-78
2023/12/27 09:45:11;;;;;;;;;;;;;;;;;;5026342;28;59114;-78
2023/12/27 09:47:36;;;;;;;;;;;;;;;;;;5025464;28;59561;-74
2023/12/27 09:50:01;;;;;;;;;;;;;;;;;;5025034;28;60826;-74
2023/12/27 09:52:27;;;;;;;;;;;;;;;;;;5024674;28;58979;-74
2023/12/27 09:54:52;;;;;;;;;;;;;;;;;;5025259;27;59265;-74
2023/12/27 09:57:17;;;;;;;;;;;;;;;;;;5025290;28;58971;-74
2023/12/27 09:59:42;;;;;;;;;;;;;;;;;;5026116;27;60504;-74
2023/12/27 10:02:07;;;;;;;;;;;;;;;;;;5022411;28;60072;-75
2023/12/27 10:04:32;;;;;;;;;;;;;;;;;;5026044;28;58639;-73
2023/12/27 10:06:58;;;;;;;;;;;;;;;;;;5026232;28;58554;-76
2023/12/27 10:09:23;;;;;;;;;;;;;;;;;;5024227;27;58897;-74
2023/12/27 10:11:48;;;;;;;;;;;;;;;;;;5024526;28;58717;-74
2023/12/27 10:14:13;;;;;;;;;;;;;;;;;;5025173;27;58726;-74
2023/12/27 10:16:38;;;;;;;;;;;;;;;;;;5024148;28;58958;-76
2023/12/27 10:19:10;;;;;;;;;;;;;;;;;;5024149;28;59243;-78
2023/12/27 10:21:35;;;;;;;;;;;;;;;;;;5022788;28;58922;-75
2023/12/27 10:24:00;;;;;;;;;;;;;;;;;;5024360;28;58394;-75
2023/12/27 10:26:25;;;;;;;;;;;;;;;;;;5025497;28;59748;-76
2023/12/27 10:28:50;;;;;;;;;;;;;;;;;;5024646;28;59378;-75
2023/12/27 10:31:15;;;;;;;;;;;;;;;;;;5025430;27;58713;-76
2023/12/27 10:33:40;;;;;;;;;;;;;;;;;;5023910;27;59455;-76
2023/12/27 10:36:05;;;;;;;;;;;;;;;;;;5023420;28;59116;-77
2023/12/27 10:38:31;;;;;;;;;;;;;;;;;;5024394;28;58487;-77
2023/12/27 10:40:56;;;;;;;;;;;;;;;;;;5022897;28;59586;-80
2023/12/27 10:43:21;;;;;;;;;;;;;;;;;;5025462;28;58585;-77
2023/12/27 10:45:46;;;;;;;;;;;;;;;;;;5024744;28;59396;-77
2023/12/27 10:48:11;;;;;;;;;;;;;;;;;;5023461;28;59354;-76
2023/12/27 10:50:36;;;;;;;;;;;;;;;;;;5024404;28;59071;-77
2023/12/27 10:53:02;;;;;;;;;;;;;;;;;;5023060;28;59403;-77
2023/12/27 10:55:28;;;;;;;;;;;;;;;;;;5024181;28;59914;-77
2023/12/27 10:57:53;;;;;;;;;;;;;;;;;;5023437;28;58791;-75
2023/12/27 11:00:18;;;;;;;;;;;;;;;;;;5023227;28;59523;-76
2023/12/27 11:02:43;;;;;;;;;;;;;;;;;;5024810;28;59603;-76
2023/12/27 11:05:08;;;;;;;;;;;;;;;;;;5022639;28;60437;-80
2023/12/27 11:07:35;;;;;;;;;;;;;;;;;;5024039;28;59195;-76
2023/12/27 11:10:00;;;;;;;;;;;;;;;;;;5025504;28;58469;-76
2023/12/27 11:12:25;;;;;;;;;;;;;;;;;;5023847;28;58519;-76
2023/12/27 11:14:50;;;;;;;;;;;;;;;;;;5024600;28;59147;-76
2023/12/27 11:17:15;;;;;;;;;;;;;;;;;;5024337;28;58455;-76
2023/12/27 11:19:40;;;;;;;;;;;;;;;;;;5025316;28;58583;-79
2023/12/27 11:22:05;;;;;;;;;;;;;;;;;;5023414;28;58701;-77
2023/12/27 11:24:32;;;;;;;;;;;;;;;;;;5024973;28;60449;-76
2023/12/27 11:26:57;;;;;;;;;;;;;;;;;;5021679;28;59882;-76
2023/12/27 11:29:22;;;;;;;;;;;;;;;;;;5021790;28;58439;-76
2023/12/27 11:31:47;;;;;;;;;;;;;;;;;;5024244;28;59417;-76
2023/12/27 11:34:12;;;;;;;;;;;;;;;;;;5017847;28;59282;-76
2023/12/27 11:36:37;;;;;;;;;;;;;;;;;;5022758;28;58915;-78
2023/12/27 11:39:03;;;;;;;;;;;;;;;;;;5021398;28;60082;-78
2023/12/27 11:41:28;;;;;;;;;;;;;;;;;;5021485;27;59049;-78
2023/12/27 11:43:53;;;;;;;;;;;;;;;;;;5025131;28;58768;-76
2023/12/27 11:46:19;;;;;;;;;;;;;;;;;;5021300;28;59551;-77
2023/12/27 11:48:44;;;;;;;;;;;;;;;;;;5023628;28;58637;-76
2023/12/27 11:51:09;;;;;;;;;;;;;;;;;;5022944;28;58659;-79
2023/12/27 11:53:34;;;;;;;;;;;;;;;;;;5022103;28;59612;-84
2023/12/27 11:55:59;;;;;;;;;;;;;;;;;;5021947;28;58440;-78
2023/12/27 11:58:24;;;;;;;;;;;;;;;;;;5022926;28;60186;-75
2023/12/27 12:00:49;;;;;;;;;;;;;;;;;;5020515;28;59420;-77
2023/12/27 12:03:14;;;;;;;;;;;;;;;;;;5022112;28;58691;-77
2023/12/27 12:05:39;;;;;;;;;;;;;;;;;;5022021;28;59708;-74
2023/12/27 12:08:04;;;;;;;;;;;;;;;;;;5022267;28;58434;-74
2023/12/27 12:10:29;;;;;;;;;;;;;;;;;;5023466;28;59969;-74
2023/12/27 12:12:57;;;;;;;;;;;;;;;;;;5022049;28;59640;-74
2023/12/27 12:15:22;;;;;;;;;;;;;;;;;;5022347;28;58909;-74
2023/12/27 12:17:48;;;;;;;;;;;;;;;;;;5020829;28;59462;-76
2023/12/27 12:20:13;;;;;;;;;;;;;;;;;;5021723;27;59028;-74
2023/12/27 12:22:38;;;;;;;;;;;;;;;;;;5025249;28;59004;-75
2023/12/27 12:25:03;;;;;;;;;;;;;;;;;;5022183;28;59673;-75
2023/12/27 12:27:28;;;;;;;;;;;;;;;;;;5022319;28;58292;-75
2023/12/27 12:29:53;;;;;;;;;;;;;;;;;;5023255;28;59756;-75
2023/12/27 12:32:18;;;;;;;;;;;;;;;;;;5019725;28;59888;-75
2023/12/27 12:34:44;;;;;;;;;;;;;;;;;;5022119;28;58758;-76
2023/12/27 12:37:09;;;;;;;;;;;;;;;;;;5022610;28;59675;-75
2023/12/27 12:39:34;;;;;;;;;;;;;;;;;;5021133;28;59001;-75
2023/12/27 12:41:59;;;;;;;;;;;;;;;;;;5022722;27;58825;-75
2023/12/27 12:44:24;;;;;;;;;;;;;;;;;;5020638;28;59465;-75
2023/12/27 12:46:49;;;;;;;;;;;;;;;;;;5023924;28;59737;-75
2023/12/27 12:49:14;;;;;;;;;;;;;;;;;;5021471;28;59404;-75
2023/12/27 12:51:40;;;;;;;;;;;;;;;;;;5021829;28;59891;-76
2023/12/27 12:54:07;;;;;;;;;;;;;;;;;;5023051;28;58743;-75
2023/12/27 12:56:33;;;;;;;;;;;;;;;;;;5021211;28;59449;-76
2023/12/27 12:58:58;;;;;;;;;;;;;;;;;;5022485;28;58700;-76
2023/12/27 13:01:23;;;;;;;;;;;;;;;;;;5022809;28;58310;-75
2023/12/27 13:03:48;;;;;;;;;;;;;;;;;;5022708;28;59206;-76
2023/12/27 13:06:13;;;;;;;;;;;;;;;;;;5021913;28;59164;-75
2023/12/27 13:08:38;;;;;;;;;;;;;;;;;;5024385;28;58549;-77
2023/12/27 13:11:03;;;;;;;;;;;;;;;;;;5024055;27;60138;-80
2023/12/27 13:13:28;;;;;;;;;;;;;;;;;;5022125;28;59376;-80
2023/12/27 13:15:53;;;;;;;;;;;;;;;;;;5022069;28;59448;-80
2023/12/27 13:18:19;;;;;;;;;;;;;;;;;;5021823;27;58337;-80
2023/12/27 13:20:44;;;;;;;;;;;;;;;;;;5020227;28;58910;-78
2023/12/27 13:23:09;;;;;;;;;;;;;;;;;;5018850;28;59256;-80
2023/12/27 13:25:34;;;;;;;;;;;;;;;;;;5021362;28;58611;-74
2023/12/27 13:27:59;;;;;;;;;;;;;;;;;;5021506;28;58681;-75
2023/12/27 13:30:24;;;;;;;;;;;;;;;;;;5021342;28;59755;-79
2023/12/27 13:32:49;;;;;;;;;;;;;;;;;;5021984;28;58425;-74
2023/12/27 13:35:14;;;;;;;;;;;;;;;;;;5018218;28;59858;-74
2023/12/27 13:37:39;;;;;;;;;;;;;;;;;;5020729;28;59143;-75
2023/12/27 13:40:04;;;;;;;;;;;;;;;;;;5020379;27;58325;-75
2023/12/27 13:42:30;;;;;;;;;;;;;;;;;;5020284;28;60645;-74
2023/12/27 13:44:55;;;;;;;;;;;;;;;;;;5018933;28;59761;-74
2023/12/27 13:47:20;;;;;;;;;;;;;;;;;;5021589;28;58610;-75
2023/12/27 13:49:45;;;;;;;;;;;;;;;;;;5022701;28;59640;-75
2023/12/27 13:52:10;;;;;;;;;;;;;;;;;;5020016;27;58911;-74
2023/12/27 13:54:35;;;;;;;;;;;;;;;;;;5020263;28;59773;-75
2023/12/27 13:57:00;;;;;;;;;;;;;;;;;;5022305;28;58799;-74
2023/12/27 13:59:25;;;;;;;;;;;;;;;;;;5025753;28;59536;-75
2023/12/27 14:01:50;;;;;;;;;;;;;;;;;;5025320;28;59567;-75
2023/12/27 14:04:16;;;;;;;;;;;;;;;;;;5025014;28;59907;-74
2023/12/27 14:06:41;;;;;;;;;;;;;;;;;;5026209;28;77687;-75
2023/12/27 14:09:08;;;;;;;;;;;;;;;;;;5023884;28;61026;-74
2023/12/27 14:11:33;;;;;;;;;;;;;;;;;;5024182;28;59744;-75
2023/12/27 14:13:59;;;;;;;;;;;;;;;;;;5025343;28;58796;-75
2023/12/27 14:16:25;;;;;;;;;;;;;;;;;;5024299;28;59746;-74
2023/12/27 14:18:50;;;;;;;;;;;;;;;;;;5024993;28;58731;-74
2023/12/27 14:21:15;;;;;;;;;;;;;;;;;;5024810;28;59665;-74
2023/12/27 14:23:40;;;;;;;;;;;;;;;;;;5022865;28;58455;-74
2023/12/27 14:26:05;;;;;;;;;;;;;;;;;;5024920;28;58592;-75
2023/12/27 14:28:31;;;;;;;;;;;;;;;;;;5026152;28;58491;-74
2023/12/27 14:30:56;;;;;;;;;;;;;;;;;;5022739;28;59802;-75
2023/12/27 14:33:21;;;;;;;;;;;;;;;;;;5024604;28;58731;-75
2023/12/27 14:35:46;;;;;;;;;;;;;;;;;;5023486;28;58416;-75
2023/12/27 14:38:11;;;;;;;;;;;;;;;;;;5025819;28;58355;-74
2023/12/27 14:40:36;;;;;;;;;;;;;;;;;;5024955;28;59377;-74
2023/12/27 14:43:01;;;;;;;;;;;;;;;;;;5024907;28;58995;-75
2023/12/27 14:45:26;;;;;;;;;;;;;;;;;;5025467;28;59725;-75
2023/12/27 14:47:51;;;;;;;;;;;;;;;;;;5024288;28;59496;-75
2023/12/27 14:50:16;;;;;;;;;;;;;;;;;;5022929;28;59224;-75
2023/12/27 14:52:42;;;;;;;;;;;;;;;;;;5026175;28;58382;-75
2023/12/27 14:55:07;;;;;;;;;;;;;;;;;;5025076;28;60125;-74
2023/12/27 14:57:33;;;;;;;;;;;;;;;;;;5022918;28;58459;-74
2023/12/27 14:59:58;;;;;;;;;;;;;;;;;;5022757;28;59337;-74
2023/12/27 15:02:23;;;;;;;;;;;;;;;;;;5022861;28;59101;-74
2023/12/27 15:04:48;;;;;;;;;;;;;;;;;;5024709;28;58782;-73
2023/12/27 15:07:13;;;;;;;;;;;;;;;;;;5024815;28;59238;-73
2023/12/27 15:09:39;;;;;;;;;;;;;;;;;;5023583;28;58914;-74
2023/12/27 15:12:04;;;;;;;;;;;;;;;;;;5022815;28;58840;-73
2023/12/27 15:14:29;;;;;;;;;;;;;;;;;;5024425;28;59766;-73
2023/12/27 15:16:54;;;;;;;;;;;;;;;;;;5023958;28;58950;-74
2023/12/27 15:19:19;;;;;;;;;;;;;;;;;;5023563;28;59455;-74
2023/12/27 15:21:44;;;;;;;;;;;;;;;;;;5023925;28;58452;-73
2023/12/27 15:24:09;;;;;;;;;;;;;;;;;;5025000;28;58756;-73
2023/12/27 15:26:34;;;;;;;;;;;;;;;;;;5023732;28;59633;-73
2023/12/27 15:28:59;;;;;;;;;;;;;;;;;;5022537;27;58982;-74
2023/12/27 15:31:26;;;;;;;;;;;;;;;;;;5019980;28;58412;-73
2023/12/27 15:33:51;;;;;;;;;;;;;;;;;;5022327;28;59563;-74
2023/12/27 15:36:16;;;;;;;;;;;;;;;;;;5022183;28;58938;-74
2023/12/27 15:38:41;;;;;;;;;;;;;;;;;;5026108;28;58786;-73
2023/12/27 15:41:07;;;;;;;;;;;;;;;;;;5022227;27;58599;-75
2023/12/27 15:43:32;;;;;;;;;;;;;;;;;;5025422;28;58985;-74
2023/12/27 15:45:57;;;;;;;;;;;;;;;;;;5023650;27;59459;-73
2023/12/27 15:48:22;;;;;;;;;;;;;;;;;;5023050;28;59144;-73
2023/12/27 15:50:47;;;;;;;;;;;;;;;;;;5024289;28;58950;-73
2023/12/27 15:53:12;;;;;;;;;;;;;;;;;;5023789;28;59796;-74
2023/12/27 15:55:37;;;;;;;;;;;;;;;;;;5024872;28;58762;-74
2023/12/27 15:58:03;;;;;;;;;;;;;;;;;;5024368;28;58808;-74
2023/12/27 16:00:28;;;;;;;;;;;;;;;;;;5023040;28;60112;-73
2023/12/27 16:02:53;;;;;;;;;;;;;;;;;;5023585;28;59715;-74
2023/12/27 16:05:18;;;;;;;;;;;;;;;;;;5024668;28;59456;-73
2023/12/27 16:07:44;;;;;;;;;;;;;;;;;;5023125;28;59744;-74
2023/12/27 16:10:09;;;;;;;;;;;;;;;;;;5022151;28;58412;-74
2023/12/27 16:12:35;;;;;;;;;;;;;;;;;;5022442;28;60373;-73
2023/12/27 16:15:00;;;;;;;;;;;;;;;;;;5022410;28;59698;-74
2023/12/27 16:17:25;;;;;;;;;;;;;;;;;;5023235;28;58957;-74
2023/12/27 16:19:51;;;;;;;;;;;;;;;;;;5023124;28;60040;-74
2023/12/27 16:22:17;;;;;;;;;;;;;;;;;;5022763;28;58865;-75
2023/12/27 16:24:42;;;;;;;;;;;;;;;;;;5022074;28;58465;-74
2023/12/27 16:27:08;;;;;;;;;;;;;;;;;;5019940;28;58802;-77
2023/12/27 16:29:33;;;;;;;;;;;;;;;;;;5022431;28;58407;-76
2023/12/27 16:31:59;;;;;;;;;;;;;;;;;;5021894;28;59922;-77